Time;durP1;ratioP1;P1;durP2;ratioP2;P2;SDS_P1;SDS_P2;PMS_P1;PMS_P2;Temp;Humidity;BMP_temperature;BMP_pressure;BME280_temperature;BME280_humidity;BME280_pressure;Samples;Min_cycle;Max_cycle;Signal;HPM_P1;HPM_P2
2023/10/28 00:00:53;;;;;;;1.77;0.60;;;14.50;73.60;;;;;;2280554;55;21009;-69
2023/10/28 00:03:21;;;;;;;2.28;0.65;;;14.50;73.60;;;;;;2513515;54;20946;-69
2023/10/28 00:05:48;;;;;;;2.55;0.43;;;14.50;73.60;;;;;;2515008;55;20969;-69
2023/10/28 00:08:17;;;;;;;2.90;0.62;;;14.50;73.60;;;;;;2280539;55;20977;-69
2023/10/28 00:10:45;;;;;;;2.60;0.77;;;14.50;73.50;;;;;;2505922;54;21014;-70
2023/10/28 00:13:12;;;;;;;2.28;0.60;;;14.50;73.60;;;;;;2281123;56;20938;-71
2023/10/28 00:15:41;;;;;;;1.17;0.40;;;14.50;73.60;;;;;;2281400;55;21916;-67
2023/10/28 00:18:08;;;;;;;1.35;0.60;;;14.50;73.60;;;;;;2513767;55;21025;-69
2023/10/28 00:20:36;;;;;;;2.67;0.68;;;14.50;73.60;;;;;;2281129;55;21029;-67
2023/10/28 00:23:04;;;;;;;2.00;0.57;;;14.50;73.60;;;;;;2283691;55;20962;-69
2023/10/28 00:25:33;;;;;;;1.75;0.52;;;14.50;73.50;;;;;;2281163;56;21497;-70
2023/10/28 00:28:00;;;;;;;1.62;0.60;;;14.50;73.50;;;;;;2281737;55;21002;-67
2023/10/28 00:30:26;;;;;;;2.83;0.60;;;14.50;73.60;;;;;;2529509;54;21617;-67
2023/10/28 00:32:54;;;;;;;3.00;0.62;;;14.50;73.50;;;;;;2513913;55;21006;-68
2023/10/28 00:35:22;;;;;;;1.62;0.50;;;14.50;73.50;;;;;;2504562;54;20938;-69
2023/10/28 00:37:51;;;;;;;1.62;0.60;;;14.50;73.50;;;;;;2281665;56;21073;-68
2023/10/28 00:40:18;;;;;;;4.40;0.60;;;14.50;73.40;;;;;;2510236;54;20946;-67
2023/10/28 00:42:46;;;;;;;3.87;0.98;;;14.50;73.40;;;;;;2280984;56;21922;-68
2023/10/28 00:45:13;;;;;;;1.25;0.52;;;14.50;73.30;;;;;;2279241;56;21868;-70
2023/10/28 00:47:41;;;;;;;2.45;0.65;;;14.50;73.40;;;;;;2281622;55;20966;-68
2023/10/28 00:50:10;;;;;;;1.83;0.60;;;14.50;73.40;;;;;;2512282;55;20978;-69
2023/10/28 00:52:50;;;;;;;3.80;0.70;;;14.50;73.40;;;;;;2513937;55;20974;-69
2023/10/28 00:55:17;;;;;;;2.60;0.60;;;14.50;73.00;;;;;;2279688;55;21788;-66
2023/10/28 00:57:44;;;;;;;2.08;0.70;;;14.50;73.40;;;;;;2513436;55;20969;-69
2023/10/28 01:00:11;;;;;;;2.78;0.60;;;14.50;73.40;;;;;;2513384;55;20870;-66
2023/10/28 01:02:39;;;;;;;2.30;0.70;;;14.50;73.40;;;;;;2281191;56;21037;-67
2023/10/28 01:05:11;;;;;;;1.15;0.50;;;14.50;73.30;;;;;;2512001;54;20954;-67
2023/10/28 01:07:41;;;;;;;2.35;0.50;;;14.50;73.40;;;;;;2274457;54;20973;-68
2023/10/28 01:10:11;;;;;;;2.30;0.70;;;14.60;73.40;;;;;;2513611;55;20990;-68
2023/10/28 01:12:38;;;;;;;2.03;0.70;;;14.50;73.20;;;;;;2514072;55;21005;-68
2023/10/28 01:15:06;;;;;;;1.70;0.50;;;14.50;73.30;;;;;;2280703;55;20950;-67
2023/10/28 01:17:35;;;;;;;2.83;0.90;;;14.50;73.30;;;;;;2280616;56;21069;-66
2023/10/28 01:20:01;;;;;;;3.17;0.70;;;14.60;73.40;;;;;;2285212;56;21872;-66
2023/10/28 01:22:28;;;;;;;5.87;0.70;;;14.50;73.30;;;;;;2527717;54;20946;-65
2023/10/28 01:24:55;;;;;;;3.55;0.70;;;14.50;73.30;;;;;;2283880;55;20986;-69
2023/10/28 01:27:22;;;;;;;4.93;0.70;;;14.50;73.30;;;;;;2274581;55;20938;-66
2023/10/28 01:29:49;;;;;;;2.37;0.62;;;14.60;73.40;;;;;;2512130;55;20963;-66
2023/10/28 01:32:15;;;;;;;2.90;0.82;;;14.60;73.30;;;;;;2506659;54;21005;-68
2023/10/28 01:34:48;;;;;;;3.83;0.80;;;14.60;73.40;;;;;;2514202;55;21140;-69
2023/10/28 01:37:16;;;;;;;;;;;14.60;73.30;;;;;;2284026;56;20997;-66
2023/10/28 01:39:51;;;;;;;3.45;0.52;;;14.50;72.30;;;;;;2512575;55;20599;-67
2023/10/28 01:44:59;;;;;;;4.32;1.17;;;14.60;73.20;;;;;;2525709;53;22396;-69
2023/10/28 01:47:29;;;;;;;3.40;0.73;;;14.50;73.30;;;;;;2273390;54;20994;-68
2023/10/28 01:49:58;;;;;;;4.10;0.80;;;14.60;74.10;;;;;;2505382;54;20974;-69
2023/10/28 01:52:28;;;;;;;2.95;0.80;;;14.50;73.30;;;;;;2510939;54;21097;-71
2023/10/28 01:54:55;;;;;;;4.28;0.80;;;14.60;73.40;;;;;;2274706;54;21738;-69
2023/10/28 01:57:24;;;;;;;3.97;0.70;;;14.60;73.40;;;;;;2308537;54;21010;-68
2023/10/28 01:59:55;;;;;;;4.82;0.93;;;14.60;73.40;;;;;;2547620;53;20948;-71
2023/10/28 02:02:22;;;;;;;3.22;0.70;;;14.60;73.40;;;;;;2296539;54;21047;-67
2023/10/28 02:04:48;;;;;;;4.07;0.95;;;14.50;73.30;;;;;;2299411;54;21721;-68
2023/10/28 02:07:16;;;;;;;2.15;0.68;;;14.60;73.40;;;;;;2306751;54;21054;-68
2023/10/28 02:09:43;;;;;;;4.18;0.85;;;14.60;73.40;;;;;;2553130;53;20987;-71
2023/10/28 02:12:11;;;;;;;2.85;0.70;;;14.60;73.40;;;;;;2306179;54;20942;-67
2023/10/28 02:14:40;;;;;;;3.55;1.12;;;14.60;73.40;;;;;;2269288;55;20973;-68
2023/10/28 02:17:07;;;;;;;3.28;0.70;;;14.60;73.40;;;;;;2285296;54;20966;-69
2023/10/28 02:19:38;;;;;;;2.83;0.60;;;14.60;73.30;;;;;;2286475;54;20962;-71
2023/10/28 02:22:06;;;;;;;;;;;14.60;73.30;;;;;;2296232;54;21006;-68
2023/10/28 02:24:39;;;;;;;2.60;0.50;;;14.60;72.20;;;;;;2521093;54;20387;-70
2023/10/28 02:27:05;;;;;;;3.30;0.73;;;14.60;73.30;;;;;;2289918;54;20962;-69
2023/10/28 02:29:33;;;;;;;3.35;0.80;;;14.60;73.20;;;;;;2289839;55;21266;-71
2023/10/28 02:32:01;;;;;;;3.40;0.60;;;14.60;73.20;;;;;;2288747;55;20993;-69
2023/10/28 02:34:28;;;;;;;3.08;0.57;;;14.60;73.20;;;;;;2520851;53;20986;-70
2023/10/28 02:36:54;;;;;;;1.15;0.55;;;14.60;73.20;;;;;;2522189;53;21066;-68
2023/10/28 02:39:21;;;;;;;3.55;0.70;;;14.60;73.20;;;;;;2520872;53;21407;-67
2023/10/28 02:41:47;;;;;;;3.12;0.70;;;14.60;73.20;;;;;;2308370;54;21156;-68
2023/10/28 02:44:13;;;;;;;4.05;0.80;;;14.60;73.20;;;;;;2286891;55;21909;-68
2023/10/28 02:46:39;;;;;;;2.25;0.62;;;14.70;73.30;;;;;;2284456;54;21031;-69
2023/10/28 02:49:06;;;;;;;7.87;0.70;;;14.60;73.10;;;;;;2283018;55;20950;-68
2023/10/28 02:51:33;;;;;;;3.28;0.65;;;14.60;73.10;;;;;;2282683;55;20970;-66
2023/10/28 02:54:01;;;;;;;4.22;0.98;;;14.60;73.10;;;;;;2283121;55;21001;-67
2023/10/28 02:56:27;;;;;;;4.97;0.80;;;14.60;73.10;;;;;;2515021;54;20914;-66
2023/10/28 02:58:54;;;;;;;2.30;0.70;;;14.60;73.00;;;;;;2282968;54;20990;-67
2023/10/28 03:01:23;;;;;;;3.30;0.73;;;14.60;73.00;;;;;;2282224;55;20946;-66
2023/10/28 03:03:49;;;;;;;2.40;0.70;;;14.60;72.90;;;;;;2283278;55;21888;-65
2023/10/28 03:06:16;;;;;;;2.15;0.70;;;14.50;72.80;;;;;;2515830;54;20950;-66
2023/10/28 03:08:42;;;;;;;2.20;0.68;;;14.60;73.00;;;;;;2282009;55;20974;-67
2023/10/28 03:11:13;;;;;;;2.25;0.60;;;14.50;72.70;;;;;;2282430;55;20989;-65
2023/10/28 03:13:39;;;;;;;2.05;0.68;;;14.60;72.60;;;;;;2515747;53;22031;-69
2023/10/28 03:16:06;;;;;;;2.70;0.77;;;14.50;72.60;;;;;;2516001;53;20973;-71
2023/10/28 03:18:32;;;;;;;2.20;0.60;;;14.50;72.60;;;;;;2281568;55;21030;-69
2023/10/28 03:20:59;;;;;;;3.05;0.70;;;14.50;72.60;;;;;;2516169;54;21447;-69
2023/10/28 03:23:25;;;;;;;3.10;0.60;;;14.50;72.60;;;;;;2515007;53;21001;-68
2023/10/28 03:25:53;;;;;;;1.87;0.40;;;14.50;72.60;;;;;;2515626;53;20958;-69
2023/10/28 03:28:21;;;;;;;2.15;0.60;;;14.40;72.60;;;;;;2282646;55;20946;-70
2023/10/28 03:30:50;;;;;;;3.20;0.50;;;14.40;72.60;;;;;;2515509;53;21529;-69
2023/10/28 03:33:18;;;;;;;1.42;0.47;;;14.40;72.60;;;;;;2515440;53;20997;-68
2023/10/28 03:35:44;;;;;;;2.70;0.60;;;14.40;72.60;;;;;;2281907;55;20980;-66
2023/10/28 03:38:11;;;;;;;4.32;0.77;;;14.40;72.60;;;;;;2282166;55;21117;-66
2023/10/28 03:40:38;;;;;;;3.45;1.20;;;14.40;72.60;;;;;;2287446;54;21845;-68
2023/10/28 03:43:08;;;;;;;1.50;0.50;;;14.30;72.40;;;;;;2283212;55;21134;-68
2023/10/28 03:45:37;;;;;;;1.45;0.40;;;14.40;72.60;;;;;;2306753;54;20952;-66
2023/10/28 03:48:05;;;;;;;2.47;0.60;;;14.30;72.40;;;;;;2301510;54;21736;-65
2023/10/28 03:50:32;;;;;;;2.45;0.40;;;14.30;72.50;;;;;;2541897;54;21001;-68
2023/10/28 03:52:58;;;;;;;3.80;0.77;;;14.30;72.50;;;;;;2542815;54;21011;-68
2023/10/28 03:55:25;;;;;;;2.35;0.60;;;14.30;72.50;;;;;;2305542;54;20963;-65
2023/10/28 03:57:52;;;;;;;3.70;0.60;;;14.30;72.50;;;;;;2302130;54;21227;-66
2023/10/28 04:00:18;;;;;;;2.15;0.60;;;14.30;72.60;;;;;;2542912;54;20986;-68
2023/10/28 04:02:44;;;;;;;2.33;0.50;;;14.20;72.50;;;;;;2540490;54;21926;-67
2023/10/28 04:05:11;;;;;;;3.25;0.60;;;14.20;72.50;;;;;;2532031;54;21003;-66
2023/10/28 04:07:38;;;;;;;2.22;0.57;;;14.20;73.30;;;;;;2300890;54;21352;-67
2023/10/28 04:10:07;;;;;;;1.15;0.50;;;14.20;72.60;;;;;;2304935;55;20953;-68
2023/10/28 04:12:33;;;;;;;1.83;0.50;;;14.20;72.70;;;;;;2303857;54;21035;-65
2023/10/28 04:15:00;;;;;;;1.85;0.40;;;14.30;72.80;;;;;;2543662;54;21766;-66
2023/10/28 04:17:30;;;;;;;3.80;0.60;;;14.20;72.70;;;;;;2304406;55;20977;-65
2023/10/28 04:19:57;;;;;;;2.75;0.60;;;14.20;72.80;;;;;;2305032;55;21006;-68
2023/10/28 04:22:24;;;;;;;2.85;0.60;;;14.20;72.80;;;;;;2542403;54;20994;-65
2023/10/28 04:24:50;;;;;;;1.37;0.50;;;14.20;72.80;;;;;;2303854;55;21030;-68
2023/10/28 04:27:17;;;;;;;2.30;0.73;;;14.20;72.90;;;;;;2543053;54;21072;-66
2023/10/28 04:29:44;;;;;;;3.35;0.60;;;14.20;72.90;;;;;;2304314;55;21005;-68
2023/10/28 04:32:10;;;;;;;2.42;0.60;;;14.20;72.90;;;;;;2304851;55;20950;-68
2023/10/28 04:34:39;;;;;;;1.65;0.57;;;14.20;72.90;;;;;;2542141;54;21034;-66
2023/10/28 04:37:14;;;;;;;3.40;0.75;;;14.20;72.90;;;;;;2304824;55;21395;-66
2023/10/28 04:39:41;;;;;;;5.07;0.57;;;14.20;73.00;;;;;;2541566;53;21864;-67
2023/10/28 04:42:08;;;;;;;4.15;0.60;;;14.20;73.00;;;;;;2305339;55;20955;-68
2023/10/28 04:44:34;;;;;;;1.60;0.60;;;14.20;73.00;;;;;;2303849;55;20958;-66
2023/10/28 04:47:01;;;;;;;2.90;0.70;;;14.20;73.00;;;;;;2305607;55;20911;-66
2023/10/28 04:49:29;;;;;;;2.45;0.88;;;14.20;73.00;;;;;;2303820;55;20950;-67
2023/10/28 04:51:55;;;;;;;2.92;0.60;;;14.20;73.00;;;;;;2304820;55;21697;-68
2023/10/28 04:54:25;;;;;;;3.28;0.60;;;14.20;73.00;;;;;;2301353;54;21021;-66
2023/10/28 04:56:53;;;;;;;2.90;0.50;;;14.20;73.00;;;;;;2306168;54;20978;-67
2023/10/28 04:59:21;;;;;;;3.15;0.55;;;14.20;73.00;;;;;;2306415;54;20954;-67
2023/10/28 05:01:47;;;;;;;2.00;0.60;;;14.30;73.10;;;;;;2307420;54;21035;-65
2023/10/28 05:04:15;;;;;;;1.27;0.50;;;14.20;73.00;;;;;;2530787;54;20933;-68
2023/10/28 05:06:42;;;;;;;2.30;0.55;;;14.20;72.90;;;;;;2305097;54;20979;-65
2023/10/28 05:09:08;;;;;;;2.08;0.60;;;14.30;73.10;;;;;;2539356;54;20977;-67
2023/10/28 05:11:36;;;;;;;3.10;0.57;;;14.20;72.90;;;;;;2304210;54;20998;-67
2023/10/28 05:14:03;;;;;;;1.55;0.60;;;14.30;73.10;;;;;;2297510;54;21080;-67
2023/10/28 05:16:30;;;;;;;2.28;0.60;;;14.20;72.90;;;;;;2282335;54;20944;-66
2023/10/28 05:18:56;;;;;;;1.62;0.47;;;14.30;73.10;;;;;;2516457;54;20925;-66
2023/10/28 05:21:22;;;;;;;2.50;0.68;;;14.30;73.10;;;;;;2282979;54;21011;-66
2023/10/28 05:23:49;;;;;;;1.60;0.40;;;14.30;73.10;;;;;;2515870;54;20979;-68
2023/10/28 05:26:16;;;;;;;3.53;0.50;;;14.30;73.10;;;;;;2289173;54;21091;-68
2023/10/28 05:28:43;;;;;;;1.73;0.40;;;14.20;72.90;;;;;;2523418;54;22013;-65
2023/10/28 05:31:10;;;;;;;2.45;0.60;;;14.30;73.10;;;;;;2282774;54;20932;-66
2023/10/28 05:33:36;;;;;;;3.00;0.60;;;14.30;73.10;;;;;;2516123;54;21031;-65
2023/10/28 05:36:12;;;;;;;1.80;0.50;;;14.30;73.10;;;;;;2282894;54;20960;-66
2023/10/28 05:38:38;;;;;;;3.05;0.73;;;14.30;73.00;;;;;;2281672;54;20995;-66
2023/10/28 05:41:05;;;;;;;1.73;0.50;;;14.30;73.10;;;;;;2307340;54;21265;-66
2023/10/28 05:43:33;;;;;;;3.33;0.62;;;14.30;73.10;;;;;;2552779;54;21545;-67
2023/10/28 05:45:59;;;;;;;2.80;0.82;;;14.30;73.10;;;;;;2312644;55;21034;-66
2023/10/28 05:48:26;;;;;;;2.47;0.60;;;14.30;73.10;;;;;;2551074;54;21435;-67
2023/10/28 05:50:53;;;;;;;3.55;0.80;;;14.30;73.10;;;;;;2289993;55;21523;-68
2023/10/28 05:53:20;;;;;;;2.97;0.57;;;14.30;73.10;;;;;;2313524;54;21017;-65
2023/10/28 05:55:47;;;;;;;1.70;0.50;;;14.40;73.20;;;;;;2313766;54;21735;-67
2023/10/28 05:58:14;;;;;;;4.12;0.70;;;14.40;73.10;;;;;;2554461;54;21422;-68
2023/10/28 06:00:42;;;;;;;1.90;0.55;;;14.40;73.20;;;;;;2312446;54;21080;-65
2023/10/28 06:03:09;;;;;;;5.32;1.08;;;14.40;73.30;;;;;;2289398;55;21238;-68
2023/10/28 06:05:35;;;;;;;2.42;0.40;;;14.40;73.10;;;;;;2294324;54;20996;-67
2023/10/28 06:08:02;;;;;;;2.35;0.57;;;14.40;73.20;;;;;;2549356;54;21139;-65
2023/10/28 06:10:28;;;;;;;2.05;0.52;;;14.40;73.20;;;;;;2553402;54;20993;-65
2023/10/28 06:12:54;;;;;;;1.40;0.70;;;14.40;73.20;;;;;;2313739;54;20973;-66
2023/10/28 06:15:24;;;;;;;3.33;0.60;;;14.40;73.20;;;;;;2553734;54;21695;-65
2023/10/28 06:17:51;;;;;;;1.95;0.60;;;14.40;73.10;;;;;;2313700;54;20965;-66
2023/10/28 06:20:20;;;;;;;2.25;0.70;;;14.50;73.20;;;;;;2313772;54;21510;-71
2023/10/28 06:22:46;;;;;;;2.72;0.62;;;14.40;73.00;;;;;;2317613;54;21016;-65
2023/10/28 06:25:15;;;;;;;2.05;0.50;;;14.50;73.20;;;;;;2310552;55;20964;-66
2023/10/28 06:27:44;;;;;;;2.10;0.43;;;14.50;73.10;;;;;;2313775;54;21036;-66
2023/10/28 06:30:14;;;;;;;2.17;0.60;;;14.50;73.00;;;;;;2554805;54;21732;-69
2023/10/28 06:32:41;;;;;;;2.17;0.52;;;14.50;73.00;;;;;;2312682;54;22385;-65
2023/10/28 06:35:07;;;;;;;1.75;0.50;;;14.50;73.00;;;;;;2314036;54;21016;-65
2023/10/28 06:37:34;;;;;;;1.27;0.40;;;14.50;73.00;;;;;;2553016;54;21036;-66
2023/10/28 06:40:01;;;;;;;2.67;0.68;;;14.50;73.70;;;;;;2553634;54;21032;-65
2023/10/28 06:42:27;;;;;;;2.22;0.70;;;14.50;73.00;;;;;;2313932;54;21665;-66
2023/10/28 06:44:53;;;;;;;1.40;0.32;;;14.50;73.10;;;;;;2553655;54;20925;-70
2023/10/28 06:47:20;;;;;;;2.80;0.68;;;14.50;73.10;;;;;;2314961;54;21033;-65
2023/10/28 06:49:47;;;;;;;3.40;0.93;;;14.50;73.10;;;;;;2317143;54;20969;-67
2023/10/28 06:52:13;;;;;;;3.85;1.08;;;14.50;73.20;;;;;;2548708;54;21426;-66
2023/10/28 06:54:40;;;;;;;3.58;0.90;;;14.60;73.20;;;;;;2553350;54;20945;-66
2023/10/28 06:57:06;;;;;;;2.10;0.70;;;14.50;73.10;;;;;;2553695;54;21454;-70
2023/10/28 06:59:34;;;;;;;2.30;0.57;;;14.60;73.20;;;;;;2552218;54;20974;-66
2023/10/28 07:02:01;;;;;;;2.03;0.60;;;14.60;73.10;;;;;;2550561;54;21005;-67
2023/10/28 07:04:27;;;;;;;1.75;0.50;;;14.60;73.10;;;;;;2312938;54;21004;-67
2023/10/28 07:06:54;;;;;;;4.25;1.55;;;14.50;73.00;;;;;;2552663;54;21092;-66
2023/10/28 07:09:23;;;;;;;2.12;0.70;;;14.60;73.10;;;;;;2311069;54;21431;-65
2023/10/28 07:11:50;;;;;;;1.92;0.50;;;14.60;73.10;;;;;;2534682;54;20995;-67
2023/10/28 07:14:16;;;;;;;3.65;0.77;;;14.60;73.10;;;;;;2538637;54;21017;-67
2023/10/28 07:16:43;;;;;;;2.55;0.65;;;14.60;73.10;;;;;;2553042;54;21406;-67
2023/10/28 07:19:09;;;;;;;3.05;0.70;;;14.60;73.20;;;;;;2314547;54;20961;-65
2023/10/28 07:21:37;;;;;;;2.70;0.60;;;14.60;73.20;;;;;;2316190;54;21179;-68
2023/10/28 07:24:09;;;;;;;2.25;0.77;;;14.60;73.30;;;;;;2312377;54;20973;-68
2023/10/28 07:26:36;;;;;;;3.00;0.68;;;14.60;73.20;;;;;;2312301;54;21060;-67
2023/10/28 07:29:05;;;;;;;2.30;0.55;;;14.60;73.30;;;;;;2315220;54;21040;-68
2023/10/28 07:31:32;;;;;;;2.80;0.70;;;14.60;73.30;;;;;;2553169;54;20952;-67
2023/10/28 07:34:00;;;;;;;2.45;0.88;;;14.70;73.40;;;;;;2554485;54;21046;-67
2023/10/28 07:36:29;;;;;;;2.53;0.70;;;14.70;73.40;;;;;;2314034;54;20945;-68
2023/10/28 07:38:56;;;;;;;2.25;0.70;;;14.70;73.30;;;;;;2554062;54;20984;-70
2023/10/28 07:41:22;;;;;;;2.80;0.82;;;14.70;73.40;;;;;;2314604;54;20964;-66
2023/10/28 07:43:51;;;;;;;1.65;0.50;;;14.70;73.40;;;;;;2553228;54;21908;-65
2023/10/28 07:46:18;;;;;;;2.45;0.68;;;14.80;73.50;;;;;;2553921;54;20997;-66
2023/10/28 07:48:45;;;;;;;2.53;0.60;;;14.80;73.40;;;;;;2547934;54;21586;-68
2023/10/28 07:51:13;;;;;;;3.25;0.68;;;14.80;73.50;;;;;;2315985;54;21022;-68
2023/10/28 07:53:39;;;;;;;2.62;0.70;;;14.90;74.30;;;;;;2312673;54;21528;-66
2023/10/28 07:56:10;;;;;;;1.75;0.50;;;14.90;73.60;;;;;;2546667;54;20990;-65
2023/10/28 07:58:36;;;;;;;1.85;0.50;;;14.90;73.50;;;;;;2291786;54;20961;-66
2023/10/28 08:01:13;;;;;;;3.35;0.65;;;14.90;73.50;;;;;;2314980;54;21020;-67
2023/10/28 08:03:43;;;;;;;2.45;0.60;;;14.90;73.10;;;;;;2311962;55;22050;-66
2023/10/28 08:06:11;;;;;;;3.00;0.80;;;15.00;73.60;;;;;;2314269;54;20954;-66
2023/10/28 08:08:41;;;;;;;1.62;0.55;;;15.00;73.60;;;;;;2312966;54;20973;-67
2023/10/28 08:11:11;;;;;;;2.80;0.60;;;15.00;73.70;;;;;;2552443;54;21330;-66
2023/10/28 08:13:40;;;;;;;3.83;0.62;;;15.10;73.60;;;;;;2552584;54;20965;-66
2023/10/28 08:16:11;;;;;;;2.70;0.70;;;15.10;73.70;;;;;;2313358;54;20957;-66
2023/10/28 08:18:47;;;;;;;1.87;0.60;;;15.10;73.60;;;;;;2314151;54;21681;-67
2023/10/28 08:21:22;;;;;;;1.60;0.52;;;15.20;73.50;;;;;;2520696;54;20989;-65
2023/10/28 08:23:50;;;;;;;3.75;0.80;;;15.20;73.60;;;;;;2313925;54;20986;-66
2023/10/28 08:26:20;;;;;;;2.40;0.70;;;15.20;73.50;;;;;;2554571;54;21370;-69
2023/10/28 08:28:46;;;;;;;1.95;0.68;;;15.30;73.60;;;;;;2313662;54;20952;-66
2023/10/28 08:31:14;;;;;;;2.90;0.70;;;15.30;73.60;;;;;;2554384;54;20989;-68
2023/10/28 08:33:41;;;;;;;4.25;0.70;;;15.30;73.60;;;;;;2312902;54;20995;-69
2023/10/28 08:36:08;;;;;;;2.95;0.85;;;15.30;73.60;;;;;;2554103;54;21445;-67
2023/10/28 08:38:35;;;;;;;4.30;1.00;;;15.40;73.70;;;;;;2554002;54;20989;-67
2023/10/28 08:41:02;;;;;;;4.60;1.00;;;15.40;73.70;;;;;;2553632;54;21032;-66
2023/10/28 08:43:34;;;;;;;2.35;0.80;;;15.50;73.70;;;;;;2313740;54;21065;-66
2023/10/28 08:46:03;;;;;;;3.22;0.80;;;15.50;73.60;;;;;;2314262;54;20929;-68
2023/10/28 08:48:30;;;;;;;3.12;0.75;;;15.50;73.70;;;;;;2554038;54;21008;-69
2023/10/28 08:51:02;;;;;;;3.00;0.85;;;15.60;74.50;;;;;;2313725;54;21629;-67
2023/10/28 08:53:29;;;;;;;2.85;0.80;;;15.60;73.60;;;;;;2549901;54;20969;-68
2023/10/28 08:55:56;;;;;;;3.28;0.80;;;15.60;73.80;;;;;;2551821;54;21002;-66
2023/10/28 08:58:23;;;;;;;2.35;0.68;;;15.70;73.80;;;;;;2310842;54;21449;-66
2023/10/28 09:00:50;;;;;;;3.10;0.85;;;15.70;73.80;;;;;;2318147;54;21028;-66
2023/10/28 09:03:22;;;;;;;1.77;0.50;;;15.70;73.80;;;;;;2555577;54;20965;-66
2023/10/28 09:05:51;;;;;;;2.15;0.70;;;15.80;74.00;;;;;;2316892;54;20989;-67
2023/10/28 09:08:17;;;;;;;3.00;0.62;;;15.80;74.00;;;;;;2549839;54;21133;-68
2023/10/28 09:10:47;;;;;;;2.08;0.60;;;15.90;74.10;;;;;;2314112;54;21069;-66
2023/10/28 09:13:21;;;;;;;3.15;0.70;;;15.90;74.10;;;;;;2555062;54;21056;-66
2023/10/28 09:15:54;;;;;;;1.30;0.40;;;16.00;73.80;;;;;;2554439;54;21457;-66
2023/10/28 09:18:21;;;;;;;3.20;0.60;;;16.00;74.20;;;;;;2554555;54;20941;-69
2023/10/28 09:20:51;;;;;;;2.92;0.70;;;16.10;74.20;;;;;;2314493;54;21013;-69
2023/10/28 09:23:18;;;;;;;4.87;0.90;;;16.10;74.00;;;;;;2554358;54;21935;-69
2023/10/28 09:25:47;;;;;;;3.58;0.80;;;16.20;74.00;;;;;;2317105;54;21000;-67
2023/10/28 09:28:16;;;;;;;3.62;0.60;;;16.20;73.80;;;;;;2554616;54;21005;-67
2023/10/28 09:30:46;;;;;;;3.22;0.70;;;16.30;73.70;;;;;;2553491;54;20960;-66
2023/10/28 09:33:15;;;;;;;2.40;0.60;;;16.30;73.80;;;;;;2314520;54;21112;-69
2023/10/28 09:35:43;;;;;;;4.35;1.17;;;16.30;73.70;;;;;;2553828;54;21009;-66
2023/10/28 09:38:13;;;;;;;3.12;1.00;;;16.40;73.70;;;;;;2314604;54;20913;-69
2023/10/28 09:40:39;;;;;;;3.22;1.20;;;16.40;73.60;;;;;;2552277;54;21088;-68
2023/10/28 09:43:09;;;;;;;6.28;2.87;;;16.40;73.60;;;;;;2312351;54;20925;-68
2023/10/28 09:45:35;;;;;;;8.07;3.53;;;16.50;73.50;;;;;;2552751;54;21013;-69
2023/10/28 09:48:04;;;;;;;5.62;2.30;;;16.50;73.70;;;;;;2313489;54;21005;-67
2023/10/28 09:50:30;;;;;;;4.57;1.80;;;16.60;73.60;;;;;;2313783;54;21451;-68
2023/10/28 09:53:00;;;;;;;6.05;2.47;;;16.60;73.60;;;;;;2551554;54;21137;-67
2023/10/28 09:55:30;;;;;;;6.12;2.42;;;16.70;73.50;;;;;;2549220;54;20926;-68
2023/10/28 09:58:26;;;;;;;8.15;3.10;;;16.70;73.60;;;;;;2314261;54;20926;-66
2023/10/28 10:00:58;;;;;;;6.10;1.85;;;16.80;72.60;;;;;;2314128;54;20981;-68
2023/10/28 10:04:21;;;;;;;4.40;1.42;;;16.80;73.70;;;;;;2313838;54;20997;-67
2023/10/28 10:06:48;;;;;;;4.60;1.20;;;16.90;73.50;;;;;;2316679;54;20975;-69
2023/10/28 10:09:18;;;;;;;2.58;0.80;;;16.90;73.90;;;;;;2310118;54;21673;-67
2023/10/28 10:11:45;;;;;;;3.60;0.93;;;17.00;73.70;;;;;;2554571;54;20925;-68
2023/10/28 10:14:12;;;;;;;4.65;0.90;;;17.00;73.80;;;;;;2314368;54;20944;-67
2023/10/28 10:16:46;;;;;;;4.20;0.90;;;17.00;73.70;;;;;;2554582;54;20957;-68
2023/10/28 10:19:20;;;;;;;4.10;0.88;;;17.10;73.50;;;;;;2555150;54;20953;-66
2023/10/28 10:21:52;;;;;;;2.83;0.90;;;17.10;73.40;;;;;;2314108;54;21072;-66
2023/10/28 10:24:19;;;;;;;4.25;0.80;;;17.20;73.20;;;;;;2554946;54;21773;-67
2023/10/28 10:26:53;;;;;;;3.75;0.88;;;17.20;73.40;;;;;;2313892;54;21024;-69
2023/10/28 10:29:20;;;;;;;3.75;0.77;;;17.20;72.70;;;;;;2314156;54;21558;-69
2023/10/28 10:31:53;;;;;;;4.03;1.05;;;17.30;73.20;;;;;;2314207;54;20981;-68
2023/10/28 10:34:33;;;;;;;2.90;0.50;;;17.30;72.90;;;;;;2313182;54;20998;-69
2023/10/28 10:37:00;;;;;;;3.70;0.80;;;17.30;72.10;;;;;;2313698;54;20974;-66
2023/10/28 10:39:27;;;;;;;1.90;0.60;;;17.30;72.90;;;;;;2314723;54;21009;-67
2023/10/28 10:41:54;;;;;;;2.20;0.77;;;17.40;72.80;;;;;;2554086;54;20985;-66
2023/10/28 10:44:39;;;;;;;3.08;0.73;;;17.40;72.70;;;;;;2314435;54;21069;-66
2023/10/28 10:47:08;;;;;;;4.47;0.85;;;17.40;71.50;;;;;;2496735;55;20965;-68
2023/10/28 10:49:36;;;;;;;3.10;0.73;;;17.40;72.50;;;;;;2523481;54;21410;-68
2023/10/28 10:52:02;;;;;;;3.75;0.85;;;17.40;72.40;;;;;;2554976;54;21790;-68
2023/10/28 10:54:39;;;;;;;3.80;0.80;;;17.40;72.20;;;;;;2554813;54;20988;-67
2023/10/28 10:57:06;;;;;;;5.50;0.85;;;17.40;71.90;;;;;;2554434;54;21005;-68
2023/10/28 10:59:33;;;;;;;3.60;1.08;;;17.40;72.10;;;;;;2314425;54;21108;-67
2023/10/28 11:02:03;;;;;;;2.28;0.60;;;17.40;72.20;;;;;;2554922;54;21562;-68
2023/10/28 11:04:30;;;;;;;3.70;0.90;;;17.30;72.10;;;;;;2555507;54;21680;-66
2023/10/28 11:06:56;;;;;;;3.08;0.90;;;17.30;72.30;;;;;;2553754;54;21036;-66
2023/10/28 11:09:23;;;;;;;2.85;0.80;;;17.30;72.40;;;;;;2314272;54;21032;-68
2023/10/28 11:11:49;;;;;;;2.60;0.80;;;17.30;72.40;;;;;;2554703;54;21446;-66
2023/10/28 11:14:19;;;;;;;3.28;1.00;;;17.30;72.40;;;;;;2314549;54;21025;-68
2023/10/28 11:16:46;;;;;;;3.00;1.00;;;17.30;73.00;;;;;;2553260;54;21001;-66
2023/10/28 11:19:12;;;;;;;4.25;0.80;;;17.30;72.50;;;;;;2554672;54;20980;-66
2023/10/28 11:21:41;;;;;;;4.65;1.10;;;17.30;72.50;;;;;;2317257;54;21022;-68
2023/10/28 11:24:10;;;;;;;4.12;1.20;;;17.30;72.40;;;;;;2550467;54;21017;-68
2023/10/28 11:26:37;;;;;;;6.05;1.27;;;17.30;72.30;;;;;;2314676;54;20949;-66
2023/10/28 11:29:14;;;;;;;5.07;1.23;;;17.40;72.60;;;;;;2316591;55;20954;-66
2023/10/28 11:31:41;;;;;;;6.22;1.50;;;17.40;72.50;;;;;;2548457;54;21471;-66
2023/10/28 11:34:08;;;;;;;4.28;1.23;;;17.40;72.70;;;;;;2523085;54;20961;-66
2023/10/28 11:36:36;;;;;;;4.03;1.40;;;17.40;72.70;;;;;;2313646;54;21037;-67
2023/10/28 11:39:13;;;;;;;4.20;1.70;;;17.20;72.50;;;;;;2312897;55;21046;-68
2023/10/28 11:41:42;;;;;;;4.35;1.27;;;17.40;72.20;;;;;;2508671;55;21029;-67
2023/10/28 11:44:11;;;;;;;5.10;1.23;;;17.40;72.60;;;;;;2531541;54;21022;-66
2023/10/28 11:46:38;;;;;;;3.20;1.33;;;17.40;72.90;;;;;;2281848;56;21705;-67
2023/10/28 11:49:04;;;;;;;4.00;1.10;;;17.40;72.80;;;;;;2515786;55;21019;-67
2023/10/28 11:51:33;;;;;;;4.93;1.40;;;17.50;72.80;;;;;;2280952;55;21496;-68
2023/10/28 11:53:59;;;;;;;3.62;0.98;;;17.50;72.80;;;;;;2299193;54;21087;-69
2023/10/28 11:56:26;;;;;;;4.18;1.23;;;17.50;72.80;;;;;;2309049;55;20987;-67
2023/10/28 11:58:52;;;;;;;3.65;1.20;;;17.50;72.90;;;;;;2302494;55;20968;-68
2023/10/28 12:01:19;;;;;;;6.07;2.17;;;17.50;73.10;;;;;;2281610;56;21395;-68
2023/10/28 12:03:45;;;;;;;6.97;2.55;;;17.50;73.10;;;;;;2284395;55;21502;-67
2023/10/28 12:06:12;;;;;;;4.97;1.75;;;17.50;73.20;;;;;;2274369;55;20967;-68
2023/10/28 12:08:44;;;;;;;4.43;1.40;;;17.60;73.30;;;;;;2287294;55;20979;-66
2023/10/28 12:11:11;;;;;;;4.37;1.40;;;17.60;73.20;;;;;;2283131;55;21031;-67
2023/10/28 12:13:38;;;;;;;7.10;1.85;;;17.60;73.20;;;;;;2282610;55;21007;-67
2023/10/28 12:16:05;;;;;;;4.28;1.35;;;17.60;73.40;;;;;;2283101;55;20989;-69
2023/10/28 12:18:32;;;;;;;5.07;1.40;;;17.70;73.30;;;;;;2282798;55;21907;-67
2023/10/28 12:20:58;;;;;;;4.30;1.17;;;17.70;73.30;;;;;;2515673;53;21068;-68
2023/10/28 12:23:25;;;;;;;3.28;1.10;;;17.70;73.20;;;;;;2282815;55;21615;-67
2023/10/28 12:25:51;;;;;;;4.55;1.00;;;17.70;73.10;;;;;;2295270;55;20970;-67
2023/10/28 12:28:17;;;;;;;3.85;1.10;;;17.80;73.20;;;;;;2308462;55;20986;-69
2023/10/28 12:30:44;;;;;;;1.58;0.50;;;17.80;73.10;;;;;;2547764;54;21474;-66
2023/10/28 12:33:11;;;;;;;3.45;0.80;;;17.80;73.30;;;;;;2308846;55;21043;-66
2023/10/28 12:35:38;;;;;;;3.28;1.17;;;17.90;73.40;;;;;;2308270;55;21022;-68
2023/10/28 12:38:08;;;;;;;3.03;1.00;;;17.90;73.30;;;;;;2308554;55;21388;-66
2023/10/28 12:40:34;;;;;;;4.10;0.88;;;17.90;73.30;;;;;;2547732;54;21038;-67
2023/10/28 12:43:00;;;;;;;3.17;0.77;;;17.90;73.20;;;;;;2547624;54;20954;-67
2023/10/28 12:45:27;;;;;;;4.72;1.00;;;18.00;73.30;;;;;;2308725;55;21408;-67
2023/10/28 12:47:53;;;;;;;3.22;0.80;;;18.00;73.20;;;;;;2309140;55;20922;-66
2023/10/28 12:50:22;;;;;;;3.00;0.98;;;18.00;73.20;;;;;;2547653;54;22128;-68
2023/10/28 12:52:49;;;;;;;2.75;0.82;;;18.00;73.20;;;;;;2308745;55;20958;-68
2023/10/28 12:55:16;;;;;;;4.32;1.20;;;18.00;73.20;;;;;;2308450;55;21030;-67